Time;durP1;ratioP1;P1;durP2;ratioP2;P2;SDS_P1;SDS_P2;PMS_P1;PMS_P2;Temp;Humidity;BMP_temperature;BMP_pressure;BME280_temperature;BME280_humidity;BME280_pressure;Samples;Min_cycle;Max_cycle;Signal;HPM_P1;HPM_P2
2023/08/25 00:02:57;;;;;;;16.73;15.23;;;23.20;90.90;;;;;;6174063;28;20220;-66
2023/08/25 00:05:57;;;;;;;16.67;15.30;;;23.20;90.90;;;;;;6145351;28;20197;-67
2023/08/25 00:08:58;;;;;;;17.43;15.63;;;23.20;90.90;;;;;;6163419;28;20199;-66
2023/08/25 00:11:59;;;;;;;17.47;15.77;;;23.20;91.40;;;;;;6165826;28;20208;-66
2023/08/25 00:14:59;;;;;;;16.83;15.37;;;23.10;91.20;;;;;;6162817;28;20227;-66
2023/08/25 00:18:00;;;;;;;17.23;15.53;;;23.10;91.20;;;;;;6179118;28;20271;-66
2023/08/25 00:21:01;;;;;;;17.60;16.00;;;23.10;91.20;;;;;;6174392;28;20243;-66
2023/08/25 00:24:02;;;;;;;17.23;15.63;;;23.10;91.00;;;;;;6177707;28;20255;-66
2023/08/25 00:27:03;;;;;;;16.00;14.70;;;23.10;91.20;;;;;;6163331;28;20196;-66
2023/08/25 00:30:04;;;;;;;16.80;15.17;;;23.00;91.10;;;;;;6171986;28;20189;-66
2023/08/25 00:33:05;;;;;;;16.00;14.50;;;23.00;91.10;;;;;;6163670;28;20196;-66
2023/08/25 00:36:05;;;;;;;15.53;14.07;;;23.00;91.20;;;;;;6162954;28;20244;-66
2023/08/25 00:39:06;;;;;;;16.07;14.67;;;23.00;91.80;;;;;;6158153;28;20236;-66
2023/08/25 00:42:07;;;;;;;16.33;14.67;;;23.00;91.80;;;;;;6159789;28;20193;-66
2023/08/25 00:45:08;;;;;;;16.70;15.23;;;23.10;92.00;;;;;;6192361;28;20235;-66
2023/08/25 00:48:10;;;;;;;17.30;15.53;;;23.10;91.80;;;;;;6170139;28;20213;-66
2023/08/25 00:51:12;;;;;;;16.37;14.90;;;;;;;;;;6145917;28;20193;-66
2023/08/25 00:54:13;;;;;;;17.40;15.70;;;;;;;;;;6178573;28;20264;-66
2023/08/25 00:57:14;;;;;;;16.93;15.33;;;;;;;;;;6162113;28;20268;-66
2023/08/25 01:00:16;;;;;;;16.70;15.20;;;;;;;;;;6177714;28;20187;-66
2023/08/25 01:03:17;;;;;;;16.67;15.17;;;;;;;;;;6176578;28;20276;-66
2023/08/25 01:06:18;;;;;;;16.17;14.67;;;;;;;;;;6161812;28;20287;-66
2023/08/25 01:09:19;;;;;;;10.37;9.47;;;;;;;;;;6165419;28;20194;-66
2023/08/25 01:12:27;;;;;;;8.87;7.93;;;;;;;;;;6169438;28;20185;-66
2023/08/25 01:15:31;;;;;;;9.90;6.50;;;23.10;92.00;;;;;;6171206;28;20211;-66
2023/08/25 01:18:34;;;;;;;6.70;4.10;;;23.40;71.20;;;;;;6178968;28;20226;-66
2023/08/25 01:21:38;;;;;;;4.90;4.40;;;23.60;67.40;;;;;;6175968;28;20188;-66
2023/08/25 01:24:41;;;;;;;6.27;3.50;;;23.60;67.70;;;;;;6177718;28;20200;-66
2023/08/25 01:27:43;;;;;;;4.17;3.13;;;23.80;64.00;;;;;;6177777;28;20212;-66
2023/08/25 01:30:44;;;;;;;4.23;2.87;;;23.90;64.20;;;;;;6142158;28;20224;-66
2023/08/25 01:33:46;;;;;;;3.73;2.60;;;23.90;64.10;;;;;;6166662;28;20235;-66
2023/08/25 01:37:03;;;;;;;3.77;2.43;;;23.90;62.70;;;;;;6176674;28;20267;-66
2023/08/25 01:40:11;;;;;;;3.30;1.80;;;23.90;62.40;;;;;;6177937;28;20215;-66
2023/08/25 01:43:16;;;;;;;3.23;2.20;;;23.90;62.80;;;;;;6176400;28;20213;-66
2023/08/25 01:46:18;;;;;;;3.53;1.87;;;23.90;62.70;;;;;;6176857;28;20189;-66
2023/08/25 01:49:20;;;;;;;2.17;1.70;;;24.00;60.00;;;;;;6171677;28;20259;-66
2023/08/25 01:52:22;;;;;;;3.00;1.83;;;24.00;59.40;;;;;;6162292;28;20191;-66
2023/08/25 01:55:23;;;;;;;2.20;1.43;;;24.10;58.30;;;;;;6176618;28;20213;-67
2023/08/25 01:58:23;;;;;;;3.43;1.57;;;24.30;57.20;;;;;;6156866;28;20251;-66
2023/08/25 02:01:25;;;;;;;2.10;1.50;;;24.40;57.30;;;;;;6156845;28;20276;-66
2023/08/25 02:04:26;;;;;;;3.63;1.60;;;24.40;58.10;;;;;;6168797;28;20212;-66
2023/08/25 02:07:27;;;;;;;2.87;1.50;;;24.30;58.50;;;;;;6178388;28;20241;-66
2023/08/25 02:10:27;;;;;;;2.80;1.33;;;24.20;60.20;;;;;;6173278;28;20200;-66
2023/08/25 02:13:28;;;;;;;2.00;1.60;;;24.20;59.90;;;;;;6145838;28;20247;-66
2023/08/25 02:16:29;;;;;;;1.60;1.40;;;24.10;61.10;;;;;;6176163;28;20183;-66
2023/08/25 02:19:29;;;;;;;3.27;1.80;;;24.00;61.40;;;;;;6157671;28;20194;-66
2023/08/25 02:22:30;;;;;;;2.77;1.40;;;24.00;59.60;;;;;;6175583;28;20184;-66
2023/08/25 02:25:31;;;;;;;3.87;1.60;;;24.00;60.30;;;;;;6159536;28;20191;-66
2023/08/25 02:28:32;;;;;;;2.50;1.40;;;24.00;60.00;;;;;;6175947;28;20192;-66
2023/08/25 02:31:32;;;;;;;3.77;1.80;;;24.00;61.40;;;;;;6165053;28;20234;-66
2023/08/25 02:34:33;;;;;;;2.20;1.70;;;23.90;61.40;;;;;;6167006;28;20545;-66
2023/08/25 02:37:36;;;;;;;3.67;1.70;;;23.80;64.00;;;;;;6191784;28;20200;-67
2023/08/25 02:40:39;;;;;;;2.23;1.67;;;23.80;64.00;;;;;;6152783;28;20189;-66
2023/08/25 02:43:40;;;;;;;2.40;1.60;;;23.80;64.90;;;;;;6159071;28;20212;-66
2023/08/25 02:46:42;;;;;;;3.03;1.23;;;23.60;65.60;;;;;;6175125;28;20209;-66
2023/08/25 02:49:43;;;;;;;2.93;1.40;;;23.60;66.10;;;;;;6173388;28;20184;-66
2023/08/25 02:52:43;;;;;;;2.63;1.67;;;23.50;66.60;;;;;;6191959;28;20193;-66
2023/08/25 02:55:45;;;;;;;5.03;1.63;;;23.40;66.60;;;;;;6158935;28;20356;-66
2023/08/25 02:58:46;;;;;;;3.63;1.40;;;23.40;66.70;;;;;;6163789;28;20181;-66
2023/08/25 03:01:47;;;;;;;4.00;1.77;;;23.30;67.30;;;;;;6158072;28;20249;-67
2023/08/25 03:04:47;;;;;;;3.53;1.60;;;23.30;67.70;;;;;;6144874;28;20237;-66
2023/08/25 03:07:51;;;;;;;4.07;1.27;;;23.20;67.50;;;;;;6162108;28;20245;-66
2023/08/25 03:10:53;;;;;;;6.10;1.40;;;23.20;67.50;;;;;;6158946;28;20200;-66
2023/08/25 03:13:54;;;;;;;4.23;1.70;;;23.10;68.30;;;;;;6166873;28;20216;-66
2023/08/25 03:16:54;;;;;;;4.43;1.70;;;23.10;69.10;;;;;;6143392;28;20215;-66
2023/08/25 03:19:55;;;;;;;2.83;1.47;;;23.00;69.30;;;;;;6174347;28;20184;-66
2023/08/25 03:22:57;;;;;;;4.53;1.60;;;23.00;69.50;;;;;;6159078;28;20217;-66
2023/08/25 03:25:58;;;;;;;3.37;1.50;;;22.80;69.30;;;;;;6157810;28;20192;-66
2023/08/25 03:28:58;;;;;;;4.17;1.50;;;22.80;69.50;;;;;;6174618;28;20200;-66
2023/08/25 03:32:00;;;;;;;3.67;1.53;;;22.80;69.50;;;;;;6175588;28;20200;-66
2023/08/25 03:35:01;;;;;;;6.20;1.70;;;22.70;69.60;;;;;;6177572;28;20218;-66
2023/08/25 03:38:02;;;;;;;4.10;1.40;;;22.70;69.80;;;;;;6180302;28;20190;-66
2023/08/25 03:41:03;;;;;;;4.20;2.37;;;22.70;69.70;;;;;;6179473;28;20203;-66
2023/08/25 03:44:04;;;;;;;5.97;1.60;;;22.70;70.50;;;;;;6169095;28;20284;-66
2023/08/25 03:47:05;;;;;;;4.03;1.70;;;22.60;70.10;;;;;;6180127;28;20191;-67
2023/08/25 03:50:06;;;;;;;2.77;1.60;;;22.60;69.20;;;;;;6160983;28;20197;-67
2023/08/25 03:53:06;;;;;;;5.50;1.57;;;22.60;70.50;;;;;;6171228;28;20203;-67
2023/08/25 03:56:07;;;;;;;3.30;1.20;;;22.60;70.80;;;;;;6166985;28;20306;-67
2023/08/25 03:59:07;;;;;;;3.03;1.40;;;22.60;70.80;;;;;;6179218;28;20187;-67
2023/08/25 04:02:08;;;;;;;1.87;1.67;;;22.60;70.70;;;;;;6145985;28;20196;-67
2023/08/25 04:05:09;;;;;;;2.77;1.60;;;22.50;70.40;;;;;;6146773;28;20280;-67
2023/08/25 04:08:09;;;;;;;3.40;1.77;;;22.50;71.00;;;;;;6195589;28;20370;-67
2023/08/25 04:11:10;;;;;;;4.03;1.70;;;22.50;71.00;;;;;;6147715;28;20183;-67
2023/08/25 04:14:11;;;;;;;2.57;1.70;;;22.50;72.20;;;;;;6163320;28;20297;-67
2023/08/25 04:17:11;;;;;;;3.20;1.63;;;22.40;72.20;;;;;;6139685;28;20181;-67
2023/08/25 04:20:14;;;;;;;4.97;1.60;;;22.30;72.10;;;;;;6161807;28;20196;-65
2023/08/25 04:23:14;;;;;;;2.57;1.30;;;22.30;71.70;;;;;;6165751;28;20189;-65
2023/08/25 04:26:15;;;;;;;2.33;1.40;;;22.30;72.70;;;;;;6160417;28;20196;-65
2023/08/25 04:29:19;;;;;;;2.90;1.50;;;22.30;72.80;;;;;;6158459;28;20200;-65
2023/08/25 04:32:19;;;;;;;3.77;1.57;;;22.30;73.30;;;;;;6162486;28;20200;-65
2023/08/25 04:35:20;;;;;;;3.03;1.53;;;22.20;73.70;;;;;;6170794;28;20213;-65
2023/08/25 04:38:21;;;;;;;2.60;1.37;;;22.20;73.40;;;;;;6145844;28;20198;-65
2023/08/25 04:41:21;;;;;;;7.33;1.80;;;22.20;73.70;;;;;;6163106;28;20204;-65
2023/08/25 04:44:22;;;;;;;3.13;1.60;;;22.30;73.70;;;;;;6162028;28;20189;-65
2023/08/25 04:47:23;;;;;;;2.23;1.50;;;22.30;74.10;;;;;;6146780;28;20221;-65
2023/08/25 04:50:24;;;;;;;5.90;1.70;;;22.30;73.50;;;;;;6154352;28;20220;-65
2023/08/25 04:53:24;;;;;;;2.73;1.50;;;22.30;74.70;;;;;;6171683;28;20201;-65
2023/08/25 04:56:25;;;;;;;3.57;1.37;;;22.30;74.60;;;;;;6172710;28;20209;-65
2023/08/25 04:59:26;;;;;;;4.70;1.77;;;22.30;74.80;;;;;;6151795;28;20276;-65
2023/08/25 05:02:27;;;;;;;4.33;1.90;;;22.30;74.60;;;;;;6143569;28;20193;-65
2023/08/25 05:05:27;;;;;;;5.67;2.53;;;22.40;74.70;;;;;;6157537;28;20228;-66
2023/08/25 05:08:28;;;;;;;3.77;2.60;;;22.40;73.90;;;;;;6159892;28;20240;-67
2023/08/25 05:11:29;;;;;;;6.93;2.93;;;22.30;74.40;;;;;;6162464;28;20195;-67
2023/08/25 05:14:30;;;;;;;4.83;2.73;;;22.40;74.80;;;;;;6172215;28;20270;-67
2023/08/25 05:17:30;;;;;;;6.93;2.43;;;22.40;76.20;;;;;;6176853;28;20243;-67
2023/08/25 05:20:31;;;;;;;3.77;2.47;;;22.40;75.10;;;;;;6161496;28;20186;-68
2023/08/25 05:23:32;;;;;;;4.83;3.10;;;22.40;75.80;;;;;;6161454;28;20286;-67
2023/08/25 05:26:33;;;;;;;4.80;2.67;;;22.40;75.50;;;;;;6175991;28;20195;-65
2023/08/25 05:29:33;;;;;;;6.30;1.93;;;22.40;74.50;;;;;;6147887;28;20227;-64
2023/08/25 05:32:34;;;;;;;3.40;2.30;;;22.50;73.30;;;;;;6157843;28;20210;-66
2023/08/25 05:35:34;;;;;;;5.30;2.70;;;22.50;74.30;;;;;;6176256;28;20220;-66
2023/08/25 05:38:35;;;;;;;4.57;2.50;;;22.50;75.30;;;;;;6162033;28;20196;-65
2023/08/25 05:41:36;;;;;;;3.50;2.00;;;;;;;;;;6166070;28;20188;-67
2023/08/25 05:44:37;;;;;;;7.27;2.67;;;;;;;;;;6176544;28;20180;-67
2023/08/25 05:47:38;;;;;;;2.67;2.10;;;;;;;;;;6160983;28;20187;-67
2023/08/25 05:50:39;;;;;;;5.17;2.50;;;;;;;;;;6170700;28;20227;-66
2023/08/25 05:53:40;;;;;;;3.67;2.50;;;;;;;;;;6160223;28;20192;-67
2023/08/25 05:56:41;;;;;;;5.20;2.77;;;;;;;;;;6189741;28;20193;-67
2023/08/25 05:59:42;;;;;;;5.23;3.47;;;;;;;;;;6169061;28;20204;-67
2023/08/25 06:02:43;;;;;;;4.73;3.00;;;;;;;;;;6151788;28;20223;-67
2023/08/25 06:05:46;;;;;;;5.10;2.80;;;;;;;;;;6174490;28;20254;-68
2023/08/25 06:08:47;;;;;;;3.47;2.83;;;;;;;;;;6158232;28;20208;-69
2023/08/25 06:11:48;;;;;;;3.30;2.33;;;;;;;;;;6159684;28;20196;-69
2023/08/25 06:14:51;;;;;;;3.90;2.70;;;;;;;;;;6158234;28;20223;-69
2023/08/25 06:17:52;;;;;;;3.47;2.87;;;;;;;;;;6158998;28;20196;-68
2023/08/25 06:20:52;;;;;;;3.37;2.50;;;24.00;50.00;;;;;;6178445;28;20223;-69
2023/08/25 06:23:53;;;;;;;5.00;2.50;;;22.90;77.50;;;;;;6156167;28;20193;-69
2023/08/25 06:26:54;;;;;;;4.67;2.33;;;23.00;77.20;;;;;;6153828;28;20189;-67
2023/08/25 06:29:55;;;;;;;3.80;3.10;;;23.00;77.40;;;;;;6171238;28;20196;-67
2023/08/25 06:32:56;;;;;;;4.27;2.53;;;23.10;77.90;;;;;;6168759;28;20200;-67
2023/08/25 06:35:57;;;;;;;5.30;2.87;;;;;;;;;;6157885;28;20216;-67
2023/08/25 06:38:59;;;;;;;3.47;2.73;;;;;;;;;;6166550;28;20191;-66
2023/08/25 06:42:00;;;;;;;2.80;2.23;;;23.50;75.80;;;;;;6181952;28;20181;-67
2023/08/25 06:45:01;;;;;;;4.03;2.47;;;23.40;75.50;;;;;;6144070;28;20203;-67
2023/08/25 06:48:02;;;;;;;4.73;3.13;;;23.40;75.80;;;;;;6157643;28;20193;-69
2023/08/25 06:51:02;;;;;;;4.03;2.40;;;23.40;75.60;;;;;;6149668;28;20189;-67
2023/08/25 06:54:03;;;;;;;3.63;2.53;;;23.30;75.80;;;;;;6135879;29;20208;-67
2023/08/25 06:57:04;;;;;;;4.67;2.50;;;23.20;75.80;;;;;;6158925;28;20184;-68
2023/08/25 07:00:06;;;;;;;3.50;2.40;;;23.20;76.70;;;;;;6162515;28;20198;-67
2023/08/25 07:03:07;;;;;;;4.67;2.57;;;23.10;76.80;;;;;;6138773;28;20280;-67
2023/08/25 07:06:08;;;;;;;4.13;2.63;;;23.10;77.20;;;;;;6159348;28;20271;-67
2023/08/25 07:09:09;;;;;;;9.10;3.33;;;23.10;77.00;;;;;;6170264;28;20193;-68
2023/08/25 07:12:09;;;;;;;5.90;3.00;;;23.10;77.30;;;;;;6174004;28;20253;-67
2023/08/25 07:15:10;;;;;;;4.00;2.77;;;23.10;77.10;;;;;;6142815;28;20261;-67
2023/08/25 07:18:11;;;;;;;5.30;2.93;;;23.20;77.40;;;;;;6159123;28;20189;-68
2023/08/25 07:21:12;;;;;;;9.07;3.20;;;23.30;77.00;;;;;;6170730;28;20235;-67
2023/08/25 07:24:13;;;;;;;4.70;3.53;;;;;;;;;;6157910;28;20194;-67
2023/08/25 07:27:13;;;;;;;7.03;3.77;;;23.30;77.00;;;;;;6150307;28;20200;-67
2023/08/25 07:30:14;;;;;;;6.63;3.47;;;23.50;75.10;;;;;;6157157;28;20189;-67
2023/08/25 07:33:14;;;;;;;3.30;2.97;;;23.50;75.70;;;;;;6165748;28;20191;-67
2023/08/25 07:36:17;;;;;;;6.40;3.67;;;;;;;;;;6142675;28;20242;-67
2023/08/25 07:39:18;;;;;;;3.97;3.60;;;23.60;75.40;;;;;;6174383;28;20220;-67
2023/08/25 07:42:21;;;;;;;3.07;2.73;;;;;;;;;;6142787;28;20189;-67
2023/08/25 07:45:22;;;;;;;4.67;3.43;;;;;;;;;;6161633;28;20199;-67
2023/08/25 07:48:23;;;;;;;5.10;3.80;;;;;;;;;;6159484;28;20184;-67
2023/08/25 07:51:24;;;;;;;5.00;3.20;;;23.80;74.50;;;;;;6164668;28;20266;-67
2023/08/25 07:54:26;;;;;;;6.30;3.33;;;;;;;;;;6157912;28;20216;-67
2023/08/25 07:57:27;;;;;;;6.57;5.00;;;;;;;;;;6172634;28;20181;-67
2023/08/25 08:00:29;;;;;;;5.63;4.90;;;;;;;;;;6155474;28;20195;-67
2023/08/25 08:03:31;;;;;;;6.50;5.80;;;24.00;76.00;;;;;;6152796;28;20196;-68
2023/08/25 08:06:32;;;;;;;6.43;5.83;;;;;;;;;;6158371;28;20244;-67
2023/08/25 08:09:33;;;;;;;8.70;5.83;;;;;;;;;;6179032;28;20268;-67
2023/08/25 08:12:34;;;;;;;7.53;5.77;;;;;;;;;;6158079;28;20279;-67
2023/08/25 08:15:35;;;;;;;6.70;5.50;;;;;;;;;;6157543;28;20269;-67
2023/08/25 08:18:36;;;;;;;6.13;5.63;;;;;;;;;;6155857;28;20211;-67
2023/08/25 08:21:37;;;;;;;6.40;5.53;;;;;;;;;;6164147;28;20181;-67
2023/08/25 08:24:38;;;;;;;5.73;5.30;;;;;;;;;;6167323;28;20200;-67
2023/08/25 08:27:40;;;;;;;6.57;5.97;;;;;;;;;;6161998;28;20283;-67
2023/08/25 08:30:43;;;;;;;5.83;5.33;;;;;;;;;;6174815;28;20188;-67
2023/08/25 08:33:46;;;;;;;6.03;5.20;;;;;;;;;;6178541;28;20212;-67
2023/08/25 08:36:47;;;;;;;5.97;5.37;;;;;;;;;;6176943;28;20191;-67
2023/08/25 08:39:48;;;;;;;8.93;6.10;;;;;;;;;;6157102;28;20184;-67
2023/08/25 08:42:50;;;;;;;6.37;5.77;;;;;;;;;;6158535;28;20194;-67
2023/08/25 08:45:52;;;;;;;6.73;5.90;;;;;;;;;;6169138;28;20254;-67
2023/08/25 08:48:53;;;;;;;7.07;6.37;;;;;;;;;;6162601;28;20216;-67
2023/08/25 08:51:56;;;;;;;7.40;6.50;;;;;;;;;;6175028;28;20201;-67
2023/08/25 08:54:57;;;;;;;7.60;6.77;;;;;;;;;;6181490;28;20216;-67
2023/08/25 08:57:58;;;;;;;7.60;6.63;;;;;;;;;;6170534;28;20196;-67
2023/08/25 09:01:00;;;;;;;9.03;7.53;;;;;;;;;;6169378;28;20255;-67
2023/08/25 09:04:02;;;;;;;9.37;7.47;;;;;;;;;;6169251;28;20195;-67
2023/08/25 09:07:05;;;;;;;9.90;7.57;;;26.00;65.00;;;;;;6165635;28;20235;-67
2023/08/25 09:10:07;;;;;;;9.43;8.27;;;;;;;;;;6161726;28;20196;-68
2023/08/25 09:13:08;;;;;;;8.67;7.60;;;;;;;;;;6174468;28;20197;-67
2023/08/25 09:16:12;;;;;;;8.80;7.90;;;;;;;;;;6166900;28;20294;-68
2023/08/25 09:19:13;;;;;;;11.57;7.47;;;26.70;62.80;;;;;;6171632;28;20189;-67
2023/08/25 09:22:20;;;;;;;8.63;7.73;;;;;;;;;;6161082;28;20234;-67
2023/08/25 09:25:21;;;;;;;10.83;7.50;;;;;;;;;;6161769;28;20201;-67
2023/08/25 09:28:24;;;;;;;8.07;7.30;;;26.90;63.70;;;;;;6160760;28;20197;-67
2023/08/25 09:31:29;;;;;;;9.63;7.53;;;;;;;;;;6174998;28;20196;-67
2023/08/25 09:34:30;;;;;;;11.43;7.77;;;;;;;;;;6171672;28;20235;-67
2023/08/25 09:37:49;;;;;;;11.53;8.27;;;;;;;;;;6192979;28;20227;-67
2023/08/25 09:40:50;;;;;;;8.63;7.70;;;;;;;;;;6171013;28;20189;-68
2023/08/25 09:43:56;;;;;;;7.40;6.67;;;;;;;;;;6160592;28;20192;-67
2023/08/25 09:46:57;;;;;;;9.30;7.67;;;;;;;;;;6192169;28;20188;-67
2023/08/25 09:49:58;;;;;;;9.93;9.03;;;;;;;;;;6159905;28;20191;-67
2023/08/25 09:52:59;;;;;;;9.53;8.60;;;;;;;;;;6159702;28;20215;-67
2023/08/25 09:56:07;;;;;;;8.90;8.10;;;;;;;;;;6160778;28;20216;-67
2023/08/25 09:59:09;;;;;;;9.70;8.80;;;;;;;;;;6165816;28;20189;-68
2023/08/25 10:02:11;;;;;;;9.70;8.87;;;;;;;;;;6160745;28;20200;-68
2023/08/25 10:05:12;;;;;;;9.33;8.43;;;26.70;66.20;;;;;;6159831;28;20185;-68
2023/08/25 10:08:14;;;;;;;11.33;9.53;;;27.00;66.00;;;;;;6170013;28;20245;-68
2023/08/25 10:11:17;;;;;;;10.73;9.63;;;27.00;66.60;;;;;;6176449;28;20270;-68
2023/08/25 10:14:24;;;;;;;10.40;9.30;;;27.00;67.00;;;;;;6156583;28;20217;-68
2023/08/25 10:17:26;;;;;;;10.70;9.70;;;27.00;66.10;;;;;;6170101;28;20209;-68
2023/08/25 10:20:29;;;;;;;10.03;8.73;;;27.00;67.20;;;;;;6170404;28;20191;-68
2023/08/25 10:23:32;;;;;;;9.90;9.00;;;27.00;67.80;;;;;;6145145;28;20327;-68
2023/08/25 10:26:33;;;;;;;13.10;9.87;;;27.00;68.30;;;;;;6159243;28;20195;-68
2023/08/25 10:29:34;;;;;;;13.37;9.43;;;27.10;68.20;;;;;;6157277;28;20197;-68
2023/08/25 10:33:06;;;;;;;15.53;10.00;;;27.20;68.40;;;;;;6154825;28;20220;-68
2023/08/25 10:36:14;;;;;;;10.90;10.00;;;24.00;50.00;;;;;;6164657;28;20267;-68
2023/08/25 10:39:18;;;;;;;10.87;9.77;;;27.30;68.20;;;;;;6161496;28;20317;-68
2023/08/25 10:42:30;;;;;;;11.30;10.23;;;27.40;67.00;;;;;;6166464;28;20193;-68
2023/08/25 10:45:35;;;;;;;10.83;9.30;;;27.50;65.70;;;;;;6169585;28;20196;-68
2023/08/25 10:48:42;;;;;;;13.60;9.87;;;27.50;65.60;;;;;;6175563;28;20184;-68
2023/08/25 10:51:43;;;;;;;10.33;9.20;;;27.50;65.20;;;;;;6154020;28;20190;-68
2023/08/25 10:54:45;;;;;;;11.10;9.77;;;27.60;65.70;;;;;;6153013;28;20205;-68
2023/08/25 10:57:50;;;;;;;11.73;10.53;;;27.70;65.60;;;;;;6167187;28;20207;-68
2023/08/25 11:01:01;;;;;;;11.83;10.60;;;27.80;64.40;;;;;;6145966;28;20185;-68
2023/08/25 11:04:24;;;;;;;10.43;9.53;;;27.90;65.00;;;;;;6166483;28;20188;-68
2023/08/25 11:07:42;;;;;;;10.97;9.87;;;28.00;64.80;;;;;;6190872;28;20233;-68
2023/08/25 11:10:43;;;;;;;12.30;9.90;;;28.10;65.70;;;;;;6161357;28;20228;-68
2023/08/25 11:13:44;;;;;;;10.00;9.00;;;28.20;65.70;;;;;;6151837;28;20193;-68
2023/08/25 11:16:45;;;;;;;11.03;9.93;;;28.50;61.40;;;;;;6164660;28;20217;-68
2023/08/25 11:19:50;;;;;;;10.70;9.80;;;28.60;62.70;;;;;;6152971;28;20193;-68
2023/08/25 11:22:56;;;;;;;11.07;10.07;;;28.60;62.70;;;;;;6158834;28;20184;-68
2023/08/25 11:25:56;;;;;;;11.30;10.20;;;28.60;64.50;;;;;;6160914;28;20239;-68
2023/08/25 11:28:57;;;;;;;11.23;10.07;;;;;;;;;;6156706;28;20193;-69
2023/08/25 11:31:58;;;;;;;11.50;10.33;;;28.90;61.20;;;;;;6157656;28;20192;-68
2023/08/25 11:35:03;;;;;;;12.90;9.90;;;28.90;62.20;;;;;;6169470;28;20196;-68
2023/08/25 11:38:04;;;;;;;12.20;9.20;;;;;;;;;;6168450;28;20181;-69
2023/08/25 11:41:04;;;;;;;15.13;10.83;;;29.40;61.20;;;;;;6153371;28;20192;-68
2023/08/25 11:44:05;;;;;;;12.63;10.87;;;29.50;60.80;;;;;;6171418;28;20196;-67
2023/08/25 11:47:06;;;;;;;10.90;9.50;;;29.50;60.70;;;;;;6144871;28;20199;-66
2023/08/25 11:50:07;;;;;;;14.07;10.33;;;29.90;60.60;;;;;;6159001;28;20287;-68
2023/08/25 11:53:08;;;;;;;11.63;10.43;;;;;;;;;;6168634;28;20327;-67
2023/08/25 11:56:16;;;;;;;13.20;10.17;;;30.30;61.10;;;;;;6175507;28;20212;-65
2023/08/25 11:59:19;;;;;;;10.57;9.60;;;30.50;59.00;;;;;;6178822;28;20197;-66
2023/08/25 12:02:19;;;;;;;11.40;10.40;;;30.70;60.00;;;;;;6163961;28;20260;-66
2023/08/25 12:05:20;;;;;;;11.63;10.43;;;30.90;57.70;;;;;;6152855;28;20192;-66
2023/08/25 12:08:22;;;;;;;10.43;9.43;;;;;;;;;;6165884;28;20251;-65
2023/08/25 12:11:23;;;;;;;10.07;9.13;;;;;;;;;;6176441;28;20197;-66
2023/08/25 12:14:28;;;;;;;10.77;9.37;;;34.70;50.70;;;;;;6173944;28;20209;-66
2023/08/25 12:17:30;;;;;;;9.80;8.80;;;36.60;47.50;;;;;;6178247;28;20181;-66
2023/08/25 12:20:30;;;;;;;9.82;8.98;;;38.60;44.00;;;;;;6170331;28;20199;-66
2023/08/25 12:23:43;;;;;;;9.45;8.65;;;40.80;39.90;;;;;;6146568;28;20212;-66
2023/08/25 12:26:44;;;;;;;10.25;8.60;;;42.20;37.70;;;;;;6162321;28;20197;-66
2023/08/25 12:29:44;;;;;;;9.88;8.50;;;43.40;35.80;;;;;;6165414;28;20203;-67
2023/08/25 12:32:45;;;;;;;8.68;7.90;;;44.40;35.10;;;;;;6161649;28;20181;-67
2023/08/25 12:35:46;;;;;;;9.10;8.30;;;44.80;35.50;;;;;;6174288;28;20208;-67
2023/08/25 12:38:46;;;;;;;9.73;7.85;;;45.60;34.30;;;;;;6157368;28;20203;-66
2023/08/25 12:41:47;;;;;;;9.13;7.50;;;45.40;34.00;;;;;;6163004;28;20251;-68
2023/08/25 12:44:48;;;;;;;8.52;7.72;;;45.10;35.40;;;;;;6160055;28;20223;-67
2023/08/25 12:47:49;;;;;;;8.30;7.60;;;45.30;35.10;;;;;;6161730;28;20250;-68
2023/08/25 12:50:50;;;;;;;8.60;7.65;;;45.40;34.70;;;;;;6146826;28;20431;-68
2023/08/25 12:53:51;;;;;;;9.40;8.02;;;46.00;34.00;;;;;;6145998;28;20251;-68
2023/08/25 12:56:53;;;;;;;8.30;7.60;;;46.50;34.00;;;;;;6151602;28;20212;-68
2023/08/25 12:59:53;;;;;;;7.70;7.10;;;47.10;33.40;;;;;;6161894;28;20188;-68
2023/08/25 13:02:55;;;;;;;8.80;7.93;;;47.70;32.50;;;;;;6145443;28;20197;-67
2023/08/25 13:05:55;;;;;;;8.18;7.47;;;47.90;32.10;;;;;;6174222;28;20188;-67
2023/08/25 13:08:56;;;;;;;8.50;7.38;;;48.30;31.80;;;;;;6148495;28;20263;-68
2023/08/25 13:11:57;;;;;;;9.70;7.63;;;48.40;31.30;;;;;;6156893;28;20229;-68
2023/08/25 13:14:59;;;;;;;7.82;6.93;;;48.80;31.40;;;;;;6151608;28;20220;-68
2023/08/25 13:17:59;;;;;;;7.95;7.15;;;48.80;31.10;;;;;;6193336;28;20191;-67
2023/08/25 13:21:00;;;;;;;9.48;7.55;;;48.80;30.20;;;;;;6157808;28;20197;-68
2023/08/25 13:24:01;;;;;;;8.13;7.13;;;48.90;30.90;;;;;;6176654;28;20244;-68
2023/08/25 13:27:02;;;;;;;7.65;6.95;;;49.20;30.50;;;;;;6163111;28;20188;-68
2023/08/25 13:30:09;;;;;;;7.60;6.97;;;49.10;30.50;;;;;;6161270;28;20196;-68
2023/08/25 13:33:10;;;;;;;10.40;7.30;;;49.20;30.00;;;;;;6153424;28;20194;-65
2023/08/25 13:36:10;;;;;;;7.60;6.50;;;49.20;29.60;;;;;;6159869;28;20216;-67
2023/08/25 13:39:18;;;;;;;7.90;7.25;;;49.30;30.20;;;;;;6169963;28;20196;-67
2023/08/25 13:42:19;;;;;;;8.27;6.68;;;49.20;28.60;;;;;;6149306;28;20217;-69
2023/08/25 13:45:20;;;;;;;7.60;6.90;;;49.00;29.80;;;;;;6164491;28;20543;-68
2023/08/25 13:48:21;;;;;;;7.70;7.00;;;49.10;30.30;;;;;;6161809;28;20185;-68
2023/08/25 13:51:21;;;;;;;8.40;7.70;;;48.50;30.70;;;;;;6159645;28;20280;-67
2023/08/25 13:54:22;;;;;;;7.70;6.90;;;48.60;30.80;;;;;;6169663;28;20208;-67
2023/08/25 13:57:23;;;;;;;7.70;7.00;;;48.60;30.30;;;;;;6159124;28;20230;-70
2023/08/25 14:00:24;;;;;;;8.07;6.95;;;48.70;29.80;;;;;;6165607;28;20216;-70
2023/08/25 14:03:25;;;;;;;11.38;7.88;;;48.70;30.90;;;;;;6176930;28;20181;-70
2023/08/25 14:06:26;;;;;;;8.48;7.40;;;48.60;31.60;;;;;;6142312;28;20298;-71
2023/08/25 14:09:28;;;;;;;9.25;7.35;;;48.30;32.30;;;;;;6139584;28;20193;-71
2023/08/25 14:12:29;;;;;;;7.90;7.18;;;48.00;31.60;;;;;;6159928;28;20200;-70
2023/08/25 14:15:30;;;;;;;8.52;7.72;;;47.60;32.00;;;;;;6160581;28;20208;-70
2023/08/25 14:18:30;;;;;;;8.40;6.50;;;47.50;32.80;;;;;;6147094;28;20281;-70
2023/08/25 14:21:31;;;;;;;8.65;7.80;;;47.00;33.10;;;;;;6160081;28;20187;-70
2023/08/25 14:24:32;;;;;;;9.02;7.65;;;46.30;33.40;;;;;;6158727;28;20193;-69
2023/08/25 14:27:33;;;;;;;9.07;8.38;;;45.60;34.90;;;;;;6173923;28;20205;-69
2023/08/25 14:30:34;;;;;;;10.07;7.75;;;44.90;35.50;;;;;;6141142;28;20278;-69
2023/08/25 14:33:35;;;;;;;8.68;7.85;;;43.80;36.70;;;;;;6159041;28;20224;-69
2023/08/25 14:36:36;;;;;;;9.15;7.43;;;42.90;37.80;;;;;;6169299;28;20281;-69
2023/08/25 14:39:37;;;;;;;8.60;7.82;;;42.20;39.30;;;;;;6136677;28;20260;-69
2023/08/25 14:42:39;;;;;;;8.10;7.28;;;;;;;;;;6162592;28;20192;-69
2023/08/25 14:45:40;;;;;;;9.70;7.65;;;41.00;40.50;;;;;;6167281;28;20180;-69
2023/08/25 14:48:41;;;;;;;10.88;8.80;;;40.60;41.40;;;;;;6148217;28;20192;-69
2023/08/25 14:51:42;;;;;;;8.50;7.65;;;40.20;42.50;;;;;;6153729;28;20193;-68
2023/08/25 14:54:43;;;;;;;11.05;8.15;;;40.00;43.00;;;;;;6164616;28;20208;-70
2023/08/25 14:57:44;;;;;;;9.13;8.30;;;39.80;43.90;;;;;;6153615;28;20234;-68
2023/08/25 15:00:48;;;;;;;8.63;7.70;;;39.60;43.70;;;;;;6172632;28;20213;-69
2023/08/25 15:03:49;;;;;;;10.97;8.23;;;39.30;42.00;;;;;;6142502;28;20185;-68
2023/08/25 15:06:50;;;;;;;8.80;7.97;;;38.90;44.40;;;;;;6143323;28;20236;-69
2023/08/25 15:09:51;;;;;;;9.30;8.33;;;38.60;45.10;;;;;;6173354;28;20195;-69
2023/08/25 15:12:52;;;;;;;8.77;7.40;;;38.50;44.00;;;;;;6167602;28;20222;-69
2023/08/25 15:15:53;;;;;;;9.00;8.10;;;38.30;45.70;;;;;;6154040;28;20208;-70
2023/08/25 15:18:54;;;;;;;9.97;8.17;;;38.10;45.40;;;;;;6154235;28;20196;-71
2023/08/25 15:21:55;;;;;;;8.17;7.40;;;38.10;44.90;;;;;;6154232;28;20207;-70
2023/08/25 15:24:55;;;;;;;9.20;7.93;;;38.00;46.30;;;;;;6165763;28;20196;-70
2023/08/25 15:27:56;;;;;;;10.77;8.50;;;37.80;45.70;;;;;;6158680;28;20194;-70
2023/08/25 15:31:04;;;;;;;10.53;8.07;;;37.50;45.70;;;;;;6146200;28;20206;-70
2023/08/25 15:34:05;;;;;;;9.57;8.67;;;37.40;45.70;;;;;;6163096;28;20247;-71
2023/08/25 15:37:05;;;;;;;9.17;8.37;;;37.30;47.50;;;;;;6163942;28;20219;-71
2023/08/25 15:40:07;;;;;;;9.87;8.87;;;37.20;48.20;;;;;;6164973;28;20187;-71
2023/08/25 15:43:07;;;;;;;9.60;8.70;;;37.10;47.80;;;;;;6167699;28;20519;-71
2023/08/25 15:46:08;;;;;;;9.00;8.10;;;36.90;48.50;;;;;;6159628;28;20203;-71
2023/08/25 15:49:09;;;;;;;9.20;8.30;;;36.70;49.00;;;;;;6172062;28;20271;-70
2023/08/25 15:52:09;;;;;;;10.03;8.97;;;36.50;49.50;;;;;;6148558;28;20195;-70
2023/08/25 15:55:10;;;;;;;9.77;8.70;;;;;;;;;;6150122;28;20232;-70
2023/08/25 15:58:12;;;;;;;10.43;8.20;;;;;;;;;;6158810;28;20185;-70
2023/08/25 16:01:13;;;;;;;10.77;9.77;;;;;;;;;;6163484;28;20196;-70
2023/08/25 16:04:14;;;;;;;10.23;9.23;;;;;;;;;;6167768;28;20185;-70
2023/08/25 16:07:14;;;;;;;9.47;8.57;;;35.90;50.80;;;;;;6175862;28;20220;-70
2023/08/25 16:10:15;;;;;;;11.63;8.57;;;35.10;50.60;;;;;;6168839;28;20204;-69
2023/08/25 16:13:16;;;;;;;8.33;7.53;;;;;;;;;;6159568;28;20190;-70